KSOP/SOP METAR and TAF weather

Enter ICAO airport designator
Station Type Date Time Source
KSOP METAR 2019/12/16 05:56 UTC NOAA

KSOP 160556Z AUTO 00000KT 10SM CLR 04/03 A3017 RMK AO2 SLP221 T00390028 10078 20033 58001


Station Type Date Time Source
KSOP Decoded METAR 2019/12/16 05:56 UTC NOAA

Pinehurst/Southern Pines, Moore County Airport, NC, United States (KSOP) 35-14N 079-24W
Dec 16, 2019 - 12:56 AM EST / 2019.12.16 0556 UTC
Wind: Calm:0
Visibility: 10 mile(s):0
Sky conditions: clear
Temperature: 39.0 F (3.9 C)
Dew Point: 37.0 F (2.8 C)
Relative Humidity: 92%
Pressure (altimeter): 30.17 in. Hg (1021 hPa)
Pressure tendency: 0.00 inches (0.1 hPa) lower than three hours ago
ob: KSOP 160556Z AUTO 00000KT 10SM CLR 04/03 A3017 RMK AO2 SLP221 T00390028 10078 20033 58001
cycle: 6

Station Type Date Time Source
KSOP TAF UTC NOAA

Error!

Example: see airport list